Time;durP1;ratioP1;P1;durP2;ratioP2;P2;SDS_P1;SDS_P2;PMS_P1;PMS_P2;Temp;Humidity;BMP_temperature;BMP_pressure;BME280_temperature;BME280_humidity;BME280_pressure;Samples;Min_cycle;Max_cycle;Signal;HPM_P1;HPM_P2
2023/09/28 00:00:48;;;;;;;3.70;2.83;;;;;;;;;;5029672;28;20021;-72
2023/09/28 00:03:13;;;;;;;5.55;2.97;;;;;;;;;;5033717;28;20460;-72
2023/09/28 00:05:39;;;;;;;5.70;2.58;;;;;;;;;;5042029;28;20025;-72
2023/09/28 00:08:04;;;;;;;4.38;2.40;;;;;;;;;;5037784;28;20049;-72
2023/09/28 00:10:30;;;;;;;8.18;2.97;;;;;;;;;;5033506;28;20061;-71
2023/09/28 00:12:55;;;;;;;4.05;2.53;;;;;;;;;;5036044;28;20104;-71
2023/09/28 00:15:22;;;;;;;5.07;2.72;;;;;;;;;;5029581;28;20120;-72
2023/09/28 00:17:47;;;;;;;10.45;2.90;;;;;;;;;;5024186;28;20430;-72
2023/09/28 00:20:13;;;;;;;10.38;3.10;;;;;;;;;;5030710;28;20014;-72
2023/09/28 00:22:41;;;;;;;5.38;2.50;;;;;;;;;;5029243;28;20025;-72
2023/09/28 00:25:10;;;;;;;5.72;2.72;;;;;;;;;;5032864;28;20028;-72
2023/09/28 00:27:36;;;;;;;5.15;3.15;;;;;;;;;;5031724;28;20021;-72
2023/09/28 00:30:03;;;;;;;4.88;2.20;;;;;;;;;;5035949;28;20025;-72
2023/09/28 00:32:28;;;;;;;5.45;2.70;;;;;;;;;;5037731;28;20021;-72
2023/09/28 00:34:53;;;;;;;4.60;2.90;;;;;;;;;;5037793;28;20108;-72
2023/09/28 00:37:18;;;;;;;8.03;2.73;;;;;;;;;;5029209;28;20646;-72
2023/09/28 00:39:44;;;;;;;4.33;2.50;;;;;;;;;;5036520;28;20021;-72
2023/09/28 00:42:09;;;;;;;5.15;2.70;;;;;;;;;;5032754;28;20071;-72
2023/09/28 00:44:34;;;;;;;9.50;3.07;;;;;;;;;;5025270;28;20009;-72
2023/09/28 00:47:01;;;;;;;5.57;2.67;;;;;;;;;;5030165;28;20528;-72
2023/09/28 00:49:27;;;;;;;2.85;2.38;;;;;;;;;;5029266;28;20259;-72
2023/09/28 00:51:52;;;;;;;9.15;3.17;;;;;;;;;;5027464;28;20396;-72
2023/09/28 00:54:17;;;;;;;5.30;2.57;;;;;;;;;;5028427;28;20090;-72
2023/09/28 00:56:43;;;;;;;4.50;2.90;;;;;;;;;;5033481;28;20067;-72
2023/09/28 00:59:08;;;;;;;10.07;3.13;;;;;;;;;;5035748;28;20037;-72
2023/09/28 01:01:33;;;;;;;4.70;2.43;;;;;;;;;;5040653;28;20435;-73
2023/09/28 01:04:04;;;;;;;6.07;3.13;;;;;;;;;;5035719;28;20017;-72
2023/09/28 01:06:31;;;;;;;12.02;3.30;;;;;;;;;;5033407;28;20579;-72
2023/09/28 01:08:57;;;;;;;5.32;2.78;;;;;;;;;;5035522;28;20107;-72
2023/09/28 01:11:22;;;;;;;5.50;3.00;;;;;;;;;;5033759;28;20053;-72
2023/09/28 01:13:49;;;;;;;4.97;2.60;;;;;;;;;;5028688;28;20057;-72
2023/09/28 01:16:14;;;;;;;5.20;3.00;;;;;;;;;;5027774;28;20392;-72
2023/09/28 01:18:40;;;;;;;7.87;2.90;;;;;;;;;;5033784;28;20029;-72
2023/09/28 01:21:10;;;;;;;4.43;2.60;;;;;;;;;;5028945;28;20286;-71
2023/09/28 01:23:35;;;;;;;5.07;3.50;;;;;;;;;;5029260;28;20456;-72
2023/09/28 01:26:01;;;;;;;4.97;2.63;;;;;;;;;;5041735;28;20071;-72
2023/09/28 01:28:27;;;;;;;5.68;2.88;;;;;;;;;;5036643;28;20032;-71
2023/09/28 01:30:52;;;;;;;3.97;2.63;;;;;;;;;;5033663;28;20017;-72
2023/09/28 01:33:17;;;;;;;5.57;2.77;;;;;;;;;;5032942;28;20032;-72
2023/09/28 01:35:42;;;;;;;5.13;2.57;;;;;;;;;;5032294;28;20806;-72
2023/09/28 01:38:12;;;;;;;6.03;2.63;;;;;;;;;;5040754;28;20308;-72
2023/09/28 01:40:37;;;;;;;4.22;2.97;;;;;;;;;;5028642;28;20325;-72
2023/09/28 01:43:03;;;;;;;4.93;3.25;;;;;;;;;;5027427;28;20033;-72
2023/09/28 01:45:28;;;;;;;11.73;3.47;;;;;;;;;;5033221;28;20179;-72
2023/09/28 01:47:53;;;;;;;7.43;3.05;;;;;;;;;;5033934;28;20033;-72
2023/09/28 01:50:18;;;;;;;3.60;2.80;;;;;;;;;;5029325;28;20092;-72
2023/09/28 01:52:43;;;;;;;5.13;2.60;;;;;;;;;;5038390;28;20751;-72
2023/09/28 01:55:09;;;;;;;5.72;2.67;;;;;;;;;;5039075;28;20287;-71
2023/09/28 01:57:34;;;;;;;5.50;2.85;;;;;;;;;;5025352;28;20010;-72
2023/09/28 02:00:08;;;;;;;4.47;2.57;;;;;;;;;;5032814;28;20029;-72
2023/09/28 02:02:34;;;;;;;6.63;3.47;;;;;;;;;;5023357;28;20300;-72
2023/09/28 02:04:59;;;;;;;4.30;2.47;;;;;;;;;;5029295;28;20028;-72
2023/09/28 02:07:25;;;;;;;4.85;2.63;;;;;;;;;;5026061;28;20384;-72
2023/09/28 02:09:50;;;;;;;5.70;2.40;;;;;;;;;;5034386;28;20773;-72
2023/09/28 02:12:15;;;;;;;4.10;2.37;;;;;;;;;;5035658;28;20043;-71
2023/09/28 02:14:41;;;;;;;4.83;2.77;;;;;;;;;;5031519;28;20033;-72
2023/09/28 02:17:06;;;;;;;4.65;3.10;;;;;;;;;;5027923;28;20010;-72
2023/09/28 02:19:31;;;;;;;6.90;2.70;;;;;;;;;;5029774;28;20388;-72
2023/09/28 02:21:57;;;;;;;4.63;2.90;;;;;;;;;;5035276;28;20271;-72
2023/09/28 02:24:22;;;;;;;7.72;2.90;;;;;;;;;;5031185;28;20256;-72
2023/09/28 02:26:47;;;;;;;4.93;2.63;;;;;;;;;;5030248;28;20041;-72
2023/09/28 02:29:12;;;;;;;3.88;2.47;;;;;;;;;;5029943;28;20017;-72
2023/09/28 02:31:41;;;;;;;4.90;2.47;;;;;;;;;;5023865;28;20026;-72
2023/09/28 02:34:07;;;;;;;5.05;2.95;;;;;;;;;;5036507;28;20025;-72
2023/09/28 02:36:32;;;;;;;6.30;3.00;;;;;;;;;;5039081;28;20034;-72
2023/09/28 02:38:57;;;;;;;11.20;3.22;;;;;;;;;;5032372;28;20024;-72
2023/09/28 02:41:23;;;;;;;9.80;3.28;;;;;;;;;;5037323;28;20394;-72
2023/09/28 02:43:48;;;;;;;5.40;2.80;;;;;;;;;;5043708;28;20040;-72
2023/09/28 02:46:13;;;;;;;4.20;2.53;;;;;;;;;;5041382;28;20375;-72
2023/09/28 02:48:39;;;;;;;7.22;3.10;;;;;;;;;;5029961;28;20473;-72
2023/09/28 02:51:04;;;;;;;5.15;2.67;;;;;;;;;;5036094;28;20034;-72
2023/09/28 02:53:30;;;;;;;5.67;3.00;;;;;;;;;;5037147;28;20048;-72
2023/09/28 02:55:55;;;;;;;7.43;2.78;;;;;;;;;;5037724;28;20287;-72
2023/09/28 02:58:22;;;;;;;7.70;2.95;;;;;;;;;;5030269;28;20026;-72
2023/09/28 03:00:47;;;;;;;6.38;3.10;;;;;;;;;;5035282;28;20027;-72
2023/09/28 03:03:12;;;;;;;6.07;2.80;;;;;;;;;;5033186;28;20017;-72
2023/09/28 03:05:38;;;;;;;5.40;3.33;;;;;;;;;;5032747;28;20073;-72
2023/09/28 03:08:07;;;;;;;7.15;3.45;;;;;;;;;;5025724;28;20021;-72
2023/09/28 03:10:34;;;;;;;;;;;;;;;;;;5033628;28;20032;-72
2023/09/28 03:12:59;;;;;;;6.30;2.65;;;;;;;;;;5044620;28;19909;-72
2023/09/28 03:15:24;;;;;;;8.55;3.70;;;;;;;;;;5045247;28;20084;-72
2023/09/28 03:17:49;;;;;;;4.57;3.10;;;;;;;;;;5033706;28;20387;-72
2023/09/28 03:20:17;;;;;;;4.73;3.73;;;;;;;;;;5031346;28;20027;-72
2023/09/28 03:22:43;;;;;;;7.80;3.38;;;;;;;;;;5030813;28;20025;-72
2023/09/28 03:25:11;;;;;;;5.10;2.80;;;;;;;;;;5038147;28;20419;-72
2023/09/28 03:27:37;;;;;;;4.35;3.25;;;;;;;;;;5028504;28;20075;-72
2023/09/28 03:30:05;;;;;;;8.32;3.53;;;;;;;;;;5031033;28;20029;-72
2023/09/28 03:32:30;;;;;;;6.80;3.05;;;;;;;;;;5027806;28;20021;-72
2023/09/28 03:34:55;;;;;;;9.97;3.47;;;;;;;;;;5031320;28;20036;-72
2023/09/28 03:37:20;;;;;;;8.07;3.07;;;;;;;;;;5035595;28;20025;-72
2023/09/28 03:39:45;;;;;;;7.27;4.00;;;;;;;;;;5027573;28;20035;-72
2023/09/28 03:42:11;;;;;;;8.35;3.88;;;;;;;;;;5039104;28;20329;-72
2023/09/28 03:44:36;;;;;;;6.17;3.00;;;;;;;;;;5036227;28;20036;-72
2023/09/28 03:47:01;;;;;;;4.87;2.90;;;;;;;;;;5040425;28;20275;-72
2023/09/28 03:49:26;;;;;;;8.13;3.05;;;;;;;;;;5029434;28;20347;-72
2023/09/28 03:51:51;;;;;;;8.43;3.10;;;;;;;;;;5030546;28;20060;-72
2023/09/28 03:54:17;;;;;;;13.63;3.60;;;;;;;;;;5031646;28;20045;-72
2023/09/28 03:56:42;;;;;;;6.38;3.30;;;;;;;;;;5041141;28;20014;-73
2023/09/28 03:59:08;;;;;;;6.97;3.53;;;;;;;;;;5028049;28;20022;-72
2023/09/28 04:01:33;;;;;;;9.57;3.40;;;;;;;;;;5033837;28;20264;-72
2023/09/28 04:03:59;;;;;;;5.90;3.67;;;;;;;;;;5033925;28;20021;-72
2023/09/28 04:06:24;;;;;;;5.80;3.50;;;;;;;;;;5042829;28;20024;-72
2023/09/28 04:08:49;;;;;;;6.90;3.50;;;;;;;;;;5028911;28;20370;-72
2023/09/28 04:11:14;;;;;;;8.88;3.50;;;;;;;;;;5034133;28;20018;-72
2023/09/28 04:13:39;;;;;;;6.10;3.30;;;;;;;;;;5034847;28;20492;-72
2023/09/28 04:16:05;;;;;;;8.17;3.33;;;;;;;;;;5029478;28;20022;-72
2023/09/28 04:18:30;;;;;;;6.97;3.60;;;;;;;;;;5030395;28;20256;-72
2023/09/28 04:20:56;;;;;;;10.23;3.63;;;;;;;;;;5033546;28;20504;-72
2023/09/28 04:23:21;;;;;;;7.25;3.70;;;;;;;;;;5023197;28;20275;-72
2023/09/28 04:25:46;;;;;;;8.37;3.70;;;;;;;;;;5038148;28;20491;-72
2023/09/28 04:28:12;;;;;;;8.25;3.80;;;;;;;;;;5039162;28;20842;-72
2023/09/28 04:30:37;;;;;;;7.03;3.92;;;;;;;;;;5028709;28;20025;-72
2023/09/28 04:33:03;;;;;;;10.35;3.67;;;;;;;;;;5027988;28;20060;-72
2023/09/28 04:35:28;;;;;;;5.72;3.80;;;;;;;;;;5035416;28;20518;-72
2023/09/28 04:37:53;;;;;;;6.77;4.27;;;;;;;;;;5034414;28;20572;-72
2023/09/28 04:40:24;;;;;;;6.40;3.67;;;;;;;;;;5029451;28;20284;-72
2023/09/28 04:42:49;;;;;;;5.68;3.67;;;;;;;;;;5031114;28;20286;-72
2023/09/28 04:45:14;;;;;;;5.43;4.07;;;;;;;;;;5038894;28;20495;-72
2023/09/28 04:47:39;;;;;;;6.88;4.28;;;;;;;;;;5036082;28;20268;-72
2023/09/28 04:50:06;;;;;;;10.97;4.63;;;;;;;;;;5030396;28;20492;-72
2023/09/28 04:52:31;;;;;;;9.90;4.38;;;;;;;;;;5027514;28;20306;-72
2023/09/28 04:54:57;;;;;;;6.40;4.17;;;;;;;;;;5031098;28;20053;-72
2023/09/28 04:57:24;;;;;;;10.35;4.22;;;;;;;;;;5030458;28;20338;-72
2023/09/28 04:59:49;;;;;;;6.93;3.70;;;;;;;;;;5022975;28;20014;-72
2023/09/28 05:02:15;;;;;;;7.20;3.87;;;;;;;;;;5034760;28;20067;-72
2023/09/28 05:04:40;;;;;;;6.50;3.87;;;;;;;;;;5041791;28;20265;-72
2023/09/28 05:07:05;;;;;;;9.30;3.72;;;;;;;;;;5044588;28;20290;-72
2023/09/28 05:09:31;;;;;;;10.07;4.18;;;;;;;;;;5035376;28;20017;-73
2023/09/28 05:11:59;;;;;;;11.20;4.50;;;;;;;;;;5028487;28;20383;-72
2023/09/28 05:14:24;;;;;;;7.13;4.20;;;;;;;;;;5027868;28;20044;-72
2023/09/28 05:16:50;;;;;;;7.00;3.70;;;;;;;;;;5033344;28;20555;-72
2023/09/28 05:19:15;;;;;;;10.23;4.20;;;;;;;;;;5021406;28;20101;-72
2023/09/28 05:21:41;;;;;;;5.50;3.80;;;;;;;;;;5021511;28;20021;-73
2023/09/28 05:24:06;;;;;;;9.53;4.50;;;;;;;;;;5027480;28;20013;-72
2023/09/28 05:26:32;;;;;;;5.20;3.15;;;;;;;;;;5015743;28;20048;-72
2023/09/28 05:28:58;;;;;;;6.20;3.53;;;;;;;;;;5016336;28;20392;-72
2023/09/28 05:31:23;;;;;;;7.57;3.70;;;;;;;;;;5020764;28;20696;-72
2023/09/28 05:33:48;;;;;;;10.13;4.23;;;;;;;;;;5026993;28;20060;-72
2023/09/28 05:36:13;;;;;;;9.25;4.03;;;;;;;;;;5027248;28;20738;-72
2023/09/28 05:38:38;;;;;;;10.50;5.43;;;;;;;;;;5024006;28;20036;-72
2023/09/28 05:41:04;;;;;;;7.00;4.60;;;;;;;;;;5029156;28;20021;-72
2023/09/28 05:43:29;;;;;;;9.43;4.03;;;;;;;;;;5030550;28;20260;-72
2023/09/28 05:45:56;;;;;;;6.93;4.20;;;;;;;;;;5030221;28;20256;-72
2023/09/28 05:48:21;;;;;;;8.32;4.65;;;;;;;;;;5026035;28;20429;-72
2023/09/28 05:50:46;;;;;;;6.23;4.10;;;;;;;;;;5030094;28;20101;-72
2023/09/28 05:53:11;;;;;;;11.23;4.30;;;;;;;;;;5028203;28;20298;-72
2023/09/28 05:55:36;;;;;;;9.10;4.93;;;;;;;;;;5026410;28;20025;-72
2023/09/28 05:58:02;;;;;;;6.57;4.03;;;;;;;;;;5043596;28;20378;-72
2023/09/28 06:00:27;;;;;;;7.50;3.72;;;;;;;;;;5032307;28;20268;-72
2023/09/28 06:02:52;;;;;;;9.70;3.97;;;;;;;;;;5033755;28;20526;-72
2023/09/28 06:05:18;;;;;;;5.30;3.40;;;;;;;;;;5034632;28;20343;-72
2023/09/28 06:07:43;;;;;;;11.77;3.83;;;;;;;;;;5040412;28;20631;-72
2023/09/28 06:10:08;;;;;;;14.03;4.37;;;;;;;;;;5047542;28;20337;-72
2023/09/28 06:12:34;;;;;;;9.30;4.07;;;;;;;;;;5032497;28;20359;-72
2023/09/28 06:14:59;;;;;;;8.43;4.10;;;;;;;;;;5036360;28;20089;-72
2023/09/28 06:17:24;;;;;;;13.93;4.47;;;;;;;;;;5024708;28;20112;-72
2023/09/28 06:19:49;;;;;;;8.70;4.30;;;;;;;;;;5032400;28;20276;-72
2023/09/28 06:22:14;;;;;;;7.63;3.37;;;;;;;;;;5033291;28;20423;-72
2023/09/28 06:24:40;;;;;;;6.60;3.77;;;;;;;;;;5025915;28;20275;-72
2023/09/28 06:27:05;;;;;;;8.75;4.70;;;;;;;;;;5034567;28;20260;-72
2023/09/28 06:29:32;;;;;;;11.23;4.00;;;;;;;;;;5028725;28;20024;-72
2023/09/28 06:31:57;;;;;;;7.50;4.38;;;;;;;;;;5035229;28;20029;-72
2023/09/28 06:34:22;;;;;;;9.15;4.28;;;;;;;;;;5036975;28;20051;-71
2023/09/28 06:36:47;;;;;;;9.90;4.67;;;;;;;;;;5026894;28;20156;-72
2023/09/28 06:39:12;;;;;;;8.37;4.20;;;;;;;;;;5037431;28;20325;-72
2023/09/28 06:41:38;;;;;;;7.67;4.00;;;;;;;;;;5032464;28;20268;-72
2023/09/28 06:44:03;;;;;;;6.65;3.97;;;;;;;;;;5036693;28;20740;-72
2023/09/28 06:46:29;;;;;;;10.27;5.13;;;;;;;;;;5027106;28;20021;-72
2023/09/28 06:48:55;;;;;;;6.95;3.95;;;;;;;;;;5029280;28;20029;-73
2023/09/28 06:51:21;;;;;;;5.45;3.55;;;;;;;;;;5030148;28;20477;-73
2023/09/28 06:53:47;;;;;;;8.00;4.05;;;;;;;;;;5028263;28;20512;-73
2023/09/28 06:56:12;;;;;;;5.13;3.33;;;;;;;;;;5027405;28;20022;-73
2023/09/28 06:58:38;;;;;;;7.93;3.25;;;;;;;;;;5025328;28;20268;-73
2023/09/28 07:01:03;;;;;;;6.00;2.85;;;;;;;;;;5028195;28;20044;-72
2023/09/28 07:03:31;;;;;;;5.95;2.67;;;;;;;;;;5028832;28;20045;-73
2023/09/28 07:05:56;;;;;;;9.73;3.97;;;;;;;;;;5029672;28;20021;-72
2023/09/28 07:08:21;;;;;;;7.53;2.97;;;;;;;;;;5038376;28;20048;-73
2023/09/28 07:10:46;;;;;;;9.40;3.10;;;;;;;;;;5024632;28;20017;-73
2023/09/28 07:13:11;;;;;;;6.10;3.40;;;;;;;;;;5042536;28;20100;-72
2023/09/28 07:15:37;;;;;;;8.80;3.88;;;;;;;;;;5030210;28;20021;-73
2023/09/28 07:18:05;;;;;;;5.38;3.47;;;;;;;;;;5027941;28;20036;-73
2023/09/28 07:20:30;;;;;;;8.77;4.93;;;;;;;;;;5025793;28;20079;-72
2023/09/28 07:22:56;;;;;;;6.60;3.70;;;;;;;;;;5019937;28;20608;-72
2023/09/28 07:25:21;;;;;;;7.57;3.05;;;;;;;;;;5023215;28;20276;-72
2023/09/28 07:27:49;;;;;;;8.10;3.88;;;;;;;;;;5021672;28;20488;-73
2023/09/28 07:30:15;;;;;;;10.65;3.17;;;;;;;;;;5028233;28;20043;-73
2023/09/28 07:32:41;;;;;;;6.75;3.83;;;;;;;;;;5028894;28;20017;-73
2023/09/28 07:35:09;;;;;;;5.25;3.60;;;;;;;;;;5025781;28;20083;-73
2023/09/28 07:37:34;;;;;;;8.00;3.33;;;;;;;;;;5024705;28;20021;-72
2023/09/28 07:40:01;;;;;;;5.05;2.90;;;;;;;;;;5024335;28;20018;-73
2023/09/28 07:42:26;;;;;;;8.35;3.58;;;;;;;;;;5027701;28;20430;-73
2023/09/28 07:44:51;;;;;;;6.50;3.15;;;;;;;;;;5026313;28;20026;-73
2023/09/28 07:47:18;;;;;;;9.00;3.83;;;;;;;;;;5030231;28;20035;-73
2023/09/28 07:49:44;;;;;;;6.60;3.97;;;;;;;;;;5027340;28;20260;-73
2023/09/28 07:52:09;;;;;;;5.50;3.67;;;;;;;;;;5026889;28;20460;-73
2023/09/28 07:54:35;;;;;;;3.58;2.75;;;;;;;;;;5028373;28;20287;-73
2023/09/28 07:57:01;;;;;;;10.70;3.78;;;;;;;;;;5022814;28;20377;-72
2023/09/28 07:59:26;;;;;;;5.63;2.97;;;;;;;;;;5020667;28;20045;-74
2023/09/28 08:01:51;;;;;;;7.63;3.23;;;;;;;;;;5029234;28;20060;-74
2023/09/28 08:04:16;;;;;;;26.60;3.87;;;;;;;;;;5043261;28;20467;-73
2023/09/28 08:06:42;;;;;;;6.27;3.70;;;;;;;;;;5035825;28;20021;-74
2023/09/28 08:09:13;;;;;;;10.82;4.20;;;;;;;;;;5034705;28;20025;-73
2023/09/28 08:11:38;;;;;;;6.68;3.55;;;;;;;;;;5031693;28;20048;-73
2023/09/28 08:14:05;;;;;;;8.30;3.42;;;;;;;;;;5023199;28;20476;-73
2023/09/28 08:16:30;;;;;;;6.60;3.83;;;;;;;;;;5027959;28;20068;-73
2023/09/28 08:18:55;;;;;;;7.17;3.47;;;;;;;;;;5033434;28;20484;-73
2023/09/28 08:21:24;;;;;;;10.70;3.73;;;;;;;;;;5030906;28;20017;-73
2023/09/28 08:23:49;;;;;;;8.60;4.00;;;;;;;;;;5030906;28;20014;-74
2023/09/28 08:26:15;;;;;;;7.87;3.60;;;;;;;;;;5030606;28;20357;-73
2023/09/28 08:28:40;;;;;;;10.85;3.80;;;;;;;;;;5029038;28;20014;-73
2023/09/28 08:31:06;;;;;;;5.82;3.42;;;;;;;;;;5027936;28;20049;-73
2023/09/28 08:33:31;;;;;;;9.90;3.80;;;;;;;;;;5028115;28;20422;-73
2023/09/28 08:35:57;;;;;;;11.93;4.70;;;;;;;;;;5027209;28;20330;-73
2023/09/28 08:38:22;;;;;;;10.60;3.43;;;;;;;;;;5026626;28;20873;-73
2023/09/28 08:40:49;;;;;;;11.10;3.83;;;;;;;;;;5033327;28;20025;-73
2023/09/28 08:43:17;;;;;;;7.15;3.88;;;;;;;;;;5028301;28;20022;-73
2023/09/28 08:45:43;;;;;;;8.90;4.32;;;;;;;;;;5029983;28;20035;-74
2023/09/28 08:48:09;;;;;;;8.23;4.25;;;;;;;;;;5032812;28;20029;-73
2023/09/28 08:50:38;;;;;;;12.75;4.78;;;;;;;;;;5029945;28;20025;-73
2023/09/28 08:53:06;;;;;;;9.25;3.90;;;;;;;;;;5037219;28;20025;-73
2023/09/28 08:55:36;;;;;;;10.25;4.13;;;;;;;;;;5024243;28;20034;-73
2023/09/28 08:58:01;;;;;;;;;;;;;;;;;;5028724;28;20098;-73
2023/09/28 09:00:26;;;;;;;7.30;3.85;;;;;;;;;;5032693;28;19909;-73
2023/09/28 09:02:52;;;;;;;9.43;3.90;;;;;;;;;;5035333;28;20022;-73
2023/09/28 09:05:17;;;;;;;8.85;3.65;;;;;;;;;;5030200;28;20283;-73
2023/09/28 09:07:43;;;;;;;8.20;3.47;;;;;;;;;;5027363;28;20025;-73
2023/09/28 09:10:11;;;;;;;12.30;3.10;;;;;;;;;;5034755;28;20096;-71
2023/09/28 09:12:37;;;;;;;7.70;3.85;;;;;;;;;;5039439;28;20033;-71
2023/09/28 09:15:04;;;;;;;7.43;3.50;;;;;;;;;;5032859;28;20017;-71
2023/09/28 09:17:33;;;;;;;14.70;4.40;;;;;;;;;;5032203;28;20017;-71
2023/09/28 09:19:58;;;;;;;13.52;4.43;;;;;;;;;;5027814;28;20361;-71
2023/09/28 09:22:25;;;;;;;14.68;4.57;;;;;;;;;;5024043;28;20017;-71
2023/09/28 09:24:56;;;;;;;13.73;4.28;;;;;;;;;;5032225;28;20520;-71
2023/09/28 09:27:28;;;;;;;14.25;4.85;;;;;;;;;;5028848;28;20013;-71
2023/09/28 09:29:58;;;;;;;11.52;4.95;;;;;;;;;;5027723;28;20021;-71
2023/09/28 09:32:23;;;;;;;11.43;4.93;;;;;;;;;;5028300;28;20017;-71
2023/09/28 09:34:50;;;;;;;18.02;4.57;;;;;;;;;;5035664;28;20036;-71
2023/09/28 09:37:16;;;;;;;9.93;4.50;;;;;;;;;;5037029;28;20022;-71
2023/09/28 09:39:41;;;;;;;8.60;4.33;;;;;;;;;;5031158;28;20018;-71
2023/09/28 09:42:06;;;;;;;8.47;4.70;;;;;;;;;;5029365;28;20280;-72
2023/09/28 09:44:31;;;;;;;15.33;4.23;;;;;;;;;;5029218;28;20025;-71
2023/09/28 09:46:57;;;;;;;9.77;3.20;;;;;;;;;;5028847;28;20287;-72
2023/09/28 09:49:24;;;;;;;10.98;3.75;;;;;;;;;;5029064;28;20025;-72
2023/09/28 09:51:49;;;;;;;8.65;3.22;;;;;;;;;;5033269;28;20108;-72
2023/09/28 09:54:16;;;;;;;10.32;3.42;;;;;;;;;;5027575;28;20113;-72
2023/09/28 09:56:48;;;;;;;13.95;3.67;;;;;;;;;;5032917;28;20026;-72
2023/09/28 09:59:16;;;;;;;8.98;3.28;;;;;;;;;;5027063;28;20025;-71
2023/09/28 10:01:46;;;;;;;11.85;4.28;;;;;;;;;;5031435;28;20014;-72
2023/09/28 10:04:12;;;;;;;12.20;4.95;;;;;;;;;;5027129;28;20135;-72
2023/09/28 10:06:38;;;;;;;5.95;3.25;;;;;;;;;;5028359;28;20026;-71
2023/09/28 10:09:04;;;;;;;9.60;3.75;;;;;;;;;;5026600;28;20396;-71
2023/09/28 10:11:31;;;;;;;10.45;3.47;;;;;;;;;;5024429;28;20037;-72
2023/09/28 10:13:57;;;;;;;12.43;3.97;;;;;;;;;;5034018;28;20565;-74
2023/09/28 10:16:22;;;;;;;12.02;4.32;;;;;;;;;;5032802;28;20029;-72
2023/09/28 10:18:49;;;;;;;10.43;3.63;;;;;;;;;;5037870;28;20036;-72
2023/09/28 10:21:14;;;;;;;13.05;3.55;;;;;;;;;;5032398;28;20092;-71
2023/09/28 10:23:40;;;;;;;8.07;4.38;;;;;;;;;;5029609;28;20092;-72
2023/09/28 10:26:12;;;;;;;11.73;3.92;;;;;;;;;;5029108;28;20040;-71
2023/09/28 10:28:56;;;;;;;8.95;3.47;;;;;;;;;;5033074;28;20484;-73
2023/09/28 10:31:22;;;;;;;18.05;5.55;;;;;;;;;;5036318;28;20024;-71
2023/09/28 10:34:06;;;;;;;8.30;3.53;;;;;;;;;;5041312;28;20028;-73
2023/09/28 10:36:31;;;;;;;10.20;3.65;;;;;;;;;;5031425;28;20464;-74
2023/09/28 10:39:15;;;;;;;11.45;3.70;;;;;;;;;;5032251;28;20040;-74
2023/09/28 10:41:47;;;;;;;9.88;4.35;;;;;;;;;;5029933;28;20009;-74
2023/09/28 10:44:13;;;;;;;13.57;3.78;;;;;;;;;;5034516;28;20040;-74
2023/09/28 10:46:42;;;;;;;11.52;3.30;;;;;;;;;;5037360;28;20484;-74
2023/09/28 10:49:07;;;;;;;7.90;3.50;;;;;;;;;;5036583;28;20020;-71
2023/09/28 10:51:33;;;;;;;15.32;4.07;;;;;;;;;;5033006;28;20032;-71
2023/09/28 10:53:58;;;;;;;13.37;3.93;;;;;;;;;;5029649;28;20026;-71
2023/09/28 10:56:24;;;;;;;15.57;4.47;;;;;;;;;;5030209;28;20288;-71
2023/09/28 10:58:49;;;;;;;12.00;4.88;;;;;;;;;;5034415;28;20111;-71
2023/09/28 11:01:15;;;;;;;9.98;4.03;;;;;;;;;;5033980;28;20147;-71
2023/09/28 11:03:41;;;;;;;13.07;3.65;;;;;;;;;;5035862;28;20093;-71
2023/09/28 11:06:07;;;;;;;7.57;4.10;;;;;;;;;;5024973;28;20022;-72
2023/09/28 11:08:33;;;;;;;8.27;3.63;;;;;;;;;;5027366;28;20033;-74
2023/09/28 11:11:02;;;;;;;11.50;3.90;;;;;;;;;;5027887;28;20029;-71
2023/09/28 11:13:29;;;;;;;8.15;3.65;;;;;;;;;;5034041;28;20016;-71
2023/09/28 11:15:54;;;;;;;14.00;4.03;;;;;;;;;;5036995;28;20032;-71
2023/09/28 11:18:20;;;;;;;7.95;3.22;;;;;;;;;;5037456;28;20148;-71
2023/09/28 11:20:46;;;;;;;12.90;3.95;;;;;;;;;;5036799;28;20103;-71
2023/09/28 11:23:11;;;;;;;13.32;3.88;;;;;;;;;;5031571;28;20685;-71
2023/09/28 11:25:38;;;;;;;11.55;4.13;;;;;;;;;;5037091;28;20013;-72
2023/09/28 11:28:04;;;;;;;13.35;3.28;;;;;;;;;;5038023;28;20035;-72
2023/09/28 11:30:29;;;;;;;9.85;3.28;;;;;;;;;;5040724;28;20024;-71
2023/09/28 11:32:54;;;;;;;10.80;4.13;;;;;;;;;;5038772;28;20033;-71
2023/09/28 11:35:23;;;;;;;13.70;4.30;;;;;;;;;;5035694;28;20048;-71
2023/09/28 11:37:49;;;;;;;19.38;3.65;;;;;;;;;;5031195;28;20026;-71
2023/09/28 11:40:15;;;;;;;11.13;3.97;;;;;;;;;;5026404;28;20033;-71
2023/09/28 11:42:42;;;;;;;11.80;3.55;;;;;;;;;;5030691;28;20272;-71
2023/09/28 11:45:08;;;;;;;9.77;3.75;;;;;;;;;;5027301;28;20060;-72
2023/09/28 11:47:33;;;;;;;11.95;4.25;;;;;;;;;;5031722;28;20465;-72
2023/09/28 11:50:03;;;;;;;13.70;3.72;;;;;;;;;;5029964;28;20018;-72
2023/09/28 11:52:28;;;;;;;17.55;3.67;;;;;;;;;;5033780;28;20468;-72
2023/09/28 11:54:53;;;;;;;13.13;3.90;;;;;;;;;;5034758;28;20053;-72
2023/09/28 11:57:18;;;;;;;12.77;3.90;;;;;;;;;;5029679;28;20027;-72
2023/09/28 11:59:43;;;;;;;11.15;4.20;;;;;;;;;;5029194;28;20264;-72
2023/09/28 12:02:09;;;;;;;9.88;3.60;;;;;;;;;;5026654;28;20104;-71
2023/09/28 12:04:35;;;;;;;9.93;3.70;;;;;;;;;;5025598;28;20017;-71
2023/09/28 12:07:03;;;;;;;9.70;3.88;;;;;;;;;;5029145;28;20032;-71
2023/09/28 12:09:30;;;;;;;13.60;4.07;;;;;;;;;;5028108;28;20075;-71
2023/09/28 12:11:56;;;;;;;12.93;3.35;;;;;;;;;;5026613;28;20083;-71
2023/09/28 12:14:21;;;;;;;10.02;3.50;;;;;;;;;;5027467;28;20033;-71
2023/09/28 12:16:46;;;;;;;13.38;3.65;;;;;;;;;;5030946;28;20431;-71
2023/09/28 12:19:12;;;;;;;8.97;3.33;;;;;;;;;;5028302;28;20091;-71
2023/09/28 12:21:37;;;;;;;16.27;4.20;;;;;;;;;;5030212;28;20006;-71
2023/09/28 12:24:03;;;;;;;10.93;3.97;;;;;;;;;;5029385;28;20658;-71
2023/09/28 12:26:28;;;;;;;12.38;4.10;;;;;;;;;;5029542;28;20283;-71
2023/09/28 12:28:53;;;;;;;8.93;4.23;;;;;;;;;;5034768;28;20492;-71
2023/09/28 12:31:19;;;;;;;16.45;4.78;;;;;;;;;;5032653;28;20021;-71
2023/09/28 12:33:45;;;;;;;15.98;5.45;;;;;;;;;;5029428;28;20021;-71
2023/09/28 12:36:10;;;;;;;14.07;5.45;;;;;;;;;;5029550;28;20467;-71
2023/09/28 12:38:36;;;;;;;15.40;5.82;;;;;;;;;;5035207;28;20022;-71
2023/09/28 12:41:04;;;;;;;14.80;5.18;;;;;;;;;;5038268;28;20028;-71
2023/09/28 12:43:31;;;;;;;11.48;3.55;;;;;;;;;;5033946;28;20021;-71
2023/09/28 12:45:56;;;;;;;12.52;3.97;;;;;;;;;;5036556;28;20041;-71
2023/09/28 12:48:21;;;;;;;11.93;3.60;;;;;;;;;;5028393;28;20072;-71
2023/09/28 12:50:50;;;;;;;10.23;3.20;;;;;;;;;;5025928;28;20302;-71
2023/09/28 12:53:15;;;;;;;10.05;3.88;;;;;;;;;;5029101;28;20276;-73
2023/09/28 12:55:40;;;;;;;14.40;4.40;;;;;;;;;;5033286;28;20421;-71
2023/09/28 12:58:06;;;;;;;12.48;5.07;;;;;;;;;;5037146;28;20311;-71
2023/09/28 13:00:33;;;;;;;10.43;4.07;;;;;;;;;;5029543;28;20072;-71
2023/09/28 13:02:58;;;;;;;9.38;3.78;;;;;;;;;;5027403;28;20013;-72
2023/09/28 13:05:23;;;;;;;14.03;3.67;;;;;;;;;;5024384;28;20558;-72
2023/09/28 13:07:48;;;;;;;13.17;3.90;;;;;;;;;;5023067;28;20291;-72
2023/09/28 13:10:15;;;;;;;15.83;4.10;;;;;;;;;;5021736;28;20272;-72
2023/09/28 13:12:41;;;;;;;6.97;4.07;;;;;;;;;;5029581;28;20248;-72
2023/09/28 13:15:07;;;;;;;12.20;4.38;;;;;;;;;;5027344;28;20071;-72
2023/09/28 13:17:33;;;;;;;8.57;3.60;;;;;;;;;;5026062;28;20665;-72
2023/09/28 13:19:58;;;;;;;7.90;3.28;;;;;;;;;;5028951;28;20022;-72
2023/09/28 13:22:23;;;;;;;16.52;4.32;;;;;;;;;;5028520;28;20020;-72
2023/09/28 13:24:49;;;;;;;11.93;3.63;;;;;;;;;;5028408;28;20022;-69
2023/09/28 13:27:16;;;;;;;9.93;3.85;;;;;;;;;;5028161;28;20532;-73
2023/09/28 13:29:41;;;;;;;9.80;3.30;;;;;;;;;;5028649;28;20026;-72
2023/09/28 13:32:12;;;;;;;14.40;4.35;;;;;;;;;;5025368;28;20090;-72
2023/09/28 13:34:37;;;;;;;;;;;;;;;;;;5026768;28;20384;-73
2023/09/28 13:37:04;;;;;;;7.03;3.33;;;;;;;;;;5026076;28;19916;-73
2023/09/28 13:39:30;;;;;;;11.07;3.60;;;;;;;;;;5026026;28;20060;-73
2023/09/28 13:42:01;;;;;;;12.70;3.42;;;;;;;;;;5026450;28;20103;-73
2023/09/28 13:44:26;;;;;;;14.65;3.83;;;;;;;;;;5030547;28;20101;-72
2023/09/28 13:46:53;;;;;;;10.57;4.30;;;;;;;;;;5022480;28;20635;-72
2023/09/28 13:49:18;;;;;;;12.18;4.15;;;;;;;;;;5027986;28;20116;-72
2023/09/28 13:51:44;;;;;;;12.53;3.43;;;;;;;;;;5027998;28;20100;-72
2023/09/28 13:54:09;;;;;;;11.80;4.37;;;;;;;;;;5028395;28;20503;-72
2023/09/28 13:56:37;;;;;;;12.40;3.43;;;;;;;;;;5027554;28;20025;-72
2023/09/28 13:59:06;;;;;;;23.98;4.00;;;;;;;;;;5027966;28;20021;-72
2023/09/28 14:01:32;;;;;;;14.63;3.90;;;;;;;;;;5028794;28;20087;-74
2023/09/28 14:03:57;;;;;;;12.67;3.60;;;;;;;;;;5032615;28;20025;-73
2023/09/28 14:06:22;;;;;;;12.30;4.27;;;;;;;;;;5029302;28;20104;-72
2023/09/28 14:08:48;;;;;;;8.27;3.10;;;;;;;;;;5030160;28;20037;-72
2023/09/28 14:11:17;;;;;;;8.35;3.38;;;;;;;;;;5029287;28;20029;-72
2023/09/28 14:13:43;;;;;;;9.18;3.40;;;;;;;;;;5032706;28;20055;-72
2023/09/28 14:16:08;;;;;;;12.48;3.40;;;;;;;;;;5028400;28;20021;-72
2023/09/28 14:18:33;;;;;;;11.68;3.58;;;;;;;;;;5030374;28;20013;-72
2023/09/28 14:21:01;;;;;;;9.23;3.47;;;;;;;;;;5027959;28;20025;-71
2023/09/28 14:23:26;;;;;;;12.07;4.13;;;;;;;;;;5029270;28;20028;-73
2023/09/28 14:25:55;;;;;;;10.80;3.53;;;;;;;;;;5026393;28;20022;-73
2023/09/28 14:28:21;;;;;;;12.60;3.65;;;;;;;;;;5029842;28;20483;-73
2023/09/28 14:30:47;;;;;;;11.82;4.43;;;;;;;;;;5029569;28;20063;-73